Time;durP1;ratioP1;P1;durP2;ratioP2;P2;SDS_P1;SDS_P2;PMS_P1;PMS_P2;Temp;Humidity;BMP_temperature;BMP_pressure;BME280_temperature;BME280_humidity;BME280_pressure;Samples;Min_cycle;Max_cycle;Signal;HPM_P1;HPM_P2
2021/09/30 00:00:57;;;;;;;9.27;4.95;;;10.30;99.90;;;;;;4955546;29;20110;-79
2021/09/30 00:04:20;;;;;;;;;;;;;;;;;;;;;
2021/09/30 00:11:09;;;;;;;8.00;4.78;;;10.20;99.90;;;;;;4916698;29;20119;-80
2021/09/30 00:14:11;;;;;;;10.20;4.40;;;10.20;99.90;;;;;;4960749;28;20060;-80
2021/09/30 00:52:45;;;;;;;7.60;4.10;;;10.10;99.90;;;;;;5017283;28;20064;-79
2021/09/30 02:23:28;;;;;;;13.10;6.00;;;9.70;99.90;;;;;;4972514;28;20164;-77
2021/09/30 02:29:09;;;;;;;11.63;5.55;;;9.70;99.90;;;;;;4919604;28;20440;-78
2021/09/30 02:35:05;;;;;;;10.65;5.38;;;9.80;99.90;;;;;;4900245;29;20049;-79
2021/09/30 02:59:57;;;;;;;9.93;5.25;;;9.60;99.90;;;;;;4956971;29;20106;-77
2021/09/30 03:02:26;;;;;;;14.82;5.35;;;9.60;99.90;;;;;;4957700;29;20055;-78
2021/09/30 03:04:54;;;;;;;12.43;5.30;;;9.60;99.90;;;;;;4956598;29;20090;-77
2021/09/30 03:07:22;;;;;;;10.95;5.30;;;9.60;99.90;;;;;;4956793;28;20054;-77
2021/09/30 03:09:50;;;;;;;12.40;5.78;;;9.60;99.90;;;;;;4959717;28;20049;-78
2021/09/30 03:12:23;;;;;;;12.07;5.90;;;9.60;99.90;;;;;;4976425;28;20047;-76
2021/09/30 03:15:01;;;;;;;13.23;5.70;;;9.60;99.90;;;;;;4976027;28;20054;-76
2021/09/30 03:17:42;;;;;;;14.68;5.15;;;9.60;99.90;;;;;;4976416;28;20051;-76
2021/09/30 03:20:27;;;;;;;10.40;5.65;;;9.60;99.90;;;;;;4977127;28;20519;-77
2021/09/30 03:22:56;;;;;;;14.23;5.88;;;9.60;99.90;;;;;;4985650;28;20221;-76
2021/09/30 03:25:23;;;;;;;14.65;5.53;;;9.60;99.90;;;;;;4995417;28;20129;-76
2021/09/30 03:27:52;;;;;;;12.35;4.95;;;9.60;99.90;;;;;;4996257;28;20137;-76
2021/09/30 03:30:19;;;;;;;10.63;5.15;;;9.60;99.90;;;;;;4995995;28;20072;-76
2021/09/30 03:32:46;;;;;;;12.95;4.88;;;9.60;99.90;;;;;;4995706;28;20046;-76
2021/09/30 03:35:13;;;;;;;7.80;4.80;;;9.60;99.90;;;;;;4995290;28;20050;-77
2021/09/30 03:37:40;;;;;;;13.27;5.22;;;9.60;99.90;;;;;;4977895;28;20138;-77
2021/09/30 03:40:09;;;;;;;12.00;5.68;;;9.60;99.90;;;;;;4975980;28;20105;-77
2021/09/30 03:42:36;;;;;;;9.80;4.20;;;9.60;99.90;;;;;;4975734;28;20125;-77
2021/09/30 03:45:05;;;;;;;14.75;5.25;;;9.50;99.90;;;;;;4975827;28;20466;-77
2021/09/30 03:47:32;;;;;;;9.73;4.40;;;9.50;99.90;;;;;;4975195;28;20121;-77
2021/09/30 03:49:59;;;;;;;12.82;4.63;;;9.50;99.90;;;;;;4991036;28;20217;-76
2021/09/30 03:52:33;;;;;;;14.70;4.43;;;9.60;99.90;;;;;;4995507;28;20133;-76
2021/09/30 03:55:18;;;;;;;14.82;4.80;;;9.60;99.90;;;;;;4995232;28;20054;-76
2021/09/30 03:59:05;;;;;;;10.75;4.50;;;9.60;99.90;;;;;;4995548;28;20050;-77
2021/09/30 04:00:38;;;;;;;8.25;4.75;;;9.60;99.90;;;;;;4994693;28;20050;-77
2021/09/30 04:03:05;;;;;;;17.90;4.82;;;9.60;99.90;;;;;;4994944;28;20058;-77
2021/09/30 04:05:32;;;;;;;8.05;4.80;;;9.60;99.90;;;;;;4994615;28;20598;-77
2021/09/30 04:07:59;;;;;;;13.60;4.70;;;9.60;99.90;;;;;;4994603;28;20506;-76
2021/09/30 04:10:26;;;;;;;9.77;4.53;;;9.60;99.90;;;;;;4994663;28;20053;-77
2021/09/30 04:12:53;;;;;;;10.95;4.68;;;9.50;99.90;;;;;;4994818;28;20047;-77
2021/09/30 04:15:20;;;;;;;11.05;4.53;;;9.60;99.90;;;;;;4995526;28;20070;-75
2021/09/30 04:17:50;;;;;;;9.95;4.28;;;9.50;99.90;;;;;;4998226;28;20118;-76
2021/09/30 04:20:17;;;;;;;12.32;4.53;;;9.50;99.90;;;;;;4998381;28;20046;-76
2021/09/30 04:22:44;;;;;;;10.15;4.28;;;9.50;99.90;;;;;;4996998;28;20138;-76
2021/09/30 04:25:14;;;;;;;14.65;4.38;;;9.50;99.90;;;;;;4995010;28;20133;-77
2021/09/30 04:27:41;;;;;;;11.50;4.40;;;9.50;99.90;;;;;;4994839;28;20133;-76
2021/09/30 04:30:09;;;;;;;9.65;4.10;;;9.50;99.90;;;;;;4994455;28;20057;-76
2021/09/30 04:32:36;;;;;;;7.70;3.70;;;9.50;99.90;;;;;;4993728;28;20129;-78
2021/09/30 04:35:05;;;;;;;12.30;4.00;;;9.50;99.90;;;;;;4993951;28;20065;-80
2021/09/30 04:37:32;;;;;;;11.73;3.92;;;9.50;99.90;;;;;;4993747;28;20057;-78
2021/09/30 04:39:59;;;;;;;12.13;4.32;;;9.50;99.90;;;;;;4993501;28;20081;-77
2021/09/30 04:42:26;;;;;;;12.68;4.43;;;9.50;99.90;;;;;;5016843;23;20108;-78
2021/09/30 04:44:54;;;;;;;12.10;4.30;;;9.50;99.90;;;;;;5006241;28;20130;-76
2021/09/30 04:47:21;;;;;;;8.82;3.90;;;9.50;99.90;;;;;;5015113;28;20066;-78
2021/09/30 04:49:49;;;;;;;11.63;4.70;;;9.60;99.90;;;;;;5017576;28;20052;-79
2021/09/30 04:52:18;;;;;;;8.02;3.40;;;9.50;99.90;;;;;;5023612;28;20046;-79
2021/09/30 04:54:45;;;;;;;8.02;3.83;;;9.50;99.90;;;;;;5017718;28;20114;-78
2021/09/30 04:57:11;;;;;;;11.20;4.07;;;9.50;99.90;;;;;;5016638;28;20105;-79
2021/09/30 04:59:39;;;;;;;12.05;3.60;;;9.50;99.90;;;;;;5018982;28;20113;-79
2021/09/30 05:02:06;;;;;;;12.30;3.92;;;9.50;99.90;;;;;;5024002;28;20093;-79
2021/09/30 05:04:33;;;;;;;13.98;4.07;;;9.50;99.90;;;;;;5022589;28;20120;-79
2021/09/30 05:07:00;;;;;;;11.38;4.40;;;9.50;99.90;;;;;;5018707;28;20084;-79
2021/09/30 05:09:31;;;;;;;11.35;4.07;;;9.50;99.90;;;;;;5019627;28;20049;-79
2021/09/30 05:12:01;;;;;;;9.18;3.90;;;9.60;99.90;;;;;;5019907;28;20426;-78
2021/09/30 05:14:28;;;;;;;9.52;3.88;;;9.60;99.90;;;;;;5014460;28;20053;-79
2021/09/30 05:16:55;;;;;;;13.15;3.90;;;9.60;99.90;;;;;;5014897;28;20052;-79
2021/09/30 05:19:23;;;;;;;8.27;3.63;;;9.60;99.90;;;;;;5014136;28;20185;-78
2021/09/30 05:21:49;;;;;;;8.18;3.83;;;9.60;99.90;;;;;;5013374;28;20132;-79
2021/09/30 05:24:16;;;;;;;11.40;3.72;;;9.70;99.90;;;;;;5014530;28;20050;-78
2021/09/30 05:26:45;;;;;;;10.07;3.63;;;9.70;99.90;;;;;;5013419;28;20053;-79
2021/09/30 05:29:12;;;;;;;15.57;3.50;;;9.70;99.90;;;;;;5015264;28;20050;-79
2021/09/30 05:31:38;;;;;;;9.82;3.90;;;9.70;99.90;;;;;;5014692;28;20448;-79
2021/09/30 05:34:05;;;;;;;9.13;3.53;;;9.60;99.90;;;;;;5022454;28;20105;-79
2021/09/30 05:36:32;;;;;;;10.48;3.75;;;9.60;99.90;;;;;;5022024;28;20084;-78
2021/09/30 05:38:59;;;;;;;10.60;3.90;;;9.60;99.90;;;;;;5013589;28;20052;-79
2021/09/30 05:41:26;;;;;;;10.02;3.45;;;9.60;99.90;;;;;;5013976;28;20104;-78
2021/09/30 05:44:04;;;;;;;12.70;4.13;;;9.50;99.90;;;;;;5012899;28;20485;-77
2021/09/30 05:46:35;;;;;;;12.48;4.45;;;9.60;99.90;;;;;;5013230;28;20424;-78
2021/09/30 05:49:02;;;;;;;8.90;3.40;;;9.60;99.90;;;;;;5019090;28;20050;-80
2021/09/30 05:51:29;;;;;;;7.20;3.47;;;9.60;99.90;;;;;;5028214;28;20073;-78
2021/09/30 05:53:55;;;;;;;8.85;3.33;;;9.60;99.90;;;;;;5029404;28;20077;-80
2021/09/30 05:56:22;;;;;;;8.88;3.90;;;9.60;99.90;;;;;;5003483;28;20142;-78
2021/09/30 05:58:49;;;;;;;9.02;3.97;;;9.70;99.90;;;;;;4996794;28;20054;-79
2021/09/30 06:01:35;;;;;;;6.15;3.60;;;9.70;99.90;;;;;;4998240;28;20080;-80
2021/09/30 06:10:10;;;;;;;8.38;3.47;;;9.80;99.90;;;;;;4986678;28;20414;-80
2021/09/30 06:12:37;;;;;;;10.27;3.60;;;9.90;99.90;;;;;;4996129;28;20109;-79
2021/09/30 06:15:12;;;;;;;11.88;3.78;;;9.90;99.90;;;;;;4996958;28;20064;-78
2021/09/30 06:17:44;;;;;;;12.98;3.63;;;10.00;99.90;;;;;;4995431;28;20046;-80
2021/09/30 06:20:12;;;;;;;8.85;3.97;;;10.10;99.90;;;;;;4995064;28;20093;-80
2021/09/30 06:22:39;;;;;;;10.00;3.58;;;10.10;99.90;;;;;;4986655;28;20125;-78
2021/09/30 06:25:09;;;;;;;8.18;3.65;;;10.30;99.90;;;;;;4984910;28;20141;-80
2021/09/30 06:27:36;;;;;;;11.02;3.60;;;10.60;99.90;;;;;;4994716;28;20077;-80
2021/09/30 06:30:05;;;;;;;11.02;3.95;;;11.10;99.90;;;;;;4993395;28;20679;-80
2021/09/30 06:32:32;;;;;;;14.60;3.63;;;11.60;99.90;;;;;;4995120;28;20077;-79
2021/09/30 06:35:00;;;;;;;6.25;3.33;;;12.20;99.90;;;;;;4993786;28;20046;-79
2021/09/30 06:37:27;;;;;;;9.38;3.58;;;12.70;99.90;;;;;;4990050;28;20050;-80
2021/09/30 06:39:54;;;;;;;8.77;3.60;;;13.10;99.90;;;;;;4995667;28;20050;-81
2021/09/30 06:42:21;;;;;;;8.93;3.33;;;13.30;99.90;;;;;;5004048;28;20055;-81
2021/09/30 06:44:48;;;;;;;8.77;3.80;;;13.50;99.90;;;;;;4998261;28;20137;-81
2021/09/30 06:47:14;;;;;;;12.30;4.70;;;13.70;99.90;;;;;;4998077;28;20054;-81
2021/09/30 06:49:41;;;;;;;8.20;3.38;;;14.10;99.90;;;;;;4997534;28;20530;-81
2021/09/30 06:52:09;;;;;;;6.20;2.92;;;14.40;99.90;;;;;;4997093;28;20137;-80
2021/09/30 06:54:36;;;;;;;8.27;3.30;;;14.60;99.90;;;;;;4996963;28;20125;-80
2021/09/30 06:57:04;;;;;;;6.22;2.80;;;15.00;99.90;;;;;;4996928;28;20092;-81
2021/09/30 06:59:34;;;;;;;10.63;3.45;;;15.40;99.90;;;;;;4997156;28;20089;-81
2021/09/30 07:02:06;;;;;;;7.88;3.08;;;15.50;99.90;;;;;;4997629;28;20054;-81
2021/09/30 07:04:36;;;;;;;11.63;3.58;;;15.70;99.90;;;;;;4996939;28;20410;-81
2021/09/30 07:07:04;;;;;;;9.55;3.25;;;15.60;99.90;;;;;;4997564;28;20140;-81
2021/09/30 07:09:32;;;;;;;11.25;3.55;;;15.80;99.90;;;;;;4998674;28;20415;-81
2021/09/30 07:12:00;;;;;;;6.43;3.30;;;16.30;99.90;;;;;;4997702;28;20046;-79
2021/09/30 07:14:27;;;;;;;9.85;3.45;;;16.50;99.90;;;;;;5000370;28;20046;-81
2021/09/30 07:16:54;;;;;;;8.85;3.25;;;16.60;99.90;;;;;;5001392;28;20050;-81
2021/09/30 07:19:21;;;;;;;10.18;3.60;;;16.70;99.90;;;;;;5001519;28;20074;-81
2021/09/30 07:21:48;;;;;;;8.63;3.38;;;16.80;99.90;;;;;;4998347;28;20055;-80
2021/09/30 07:24:16;;;;;;;7.40;3.28;;;17.00;99.90;;;;;;4999786;28;20193;-79
2021/09/30 07:26:45;;;;;;;8.73;3.85;;;17.10;99.90;;;;;;4999359;28;20237;-79
2021/09/30 07:29:12;;;;;;;9.05;3.50;;;17.00;99.90;;;;;;4999509;28;20062;-79
2021/09/30 07:31:39;;;;;;;7.70;3.88;;;16.80;99.90;;;;;;4997470;28;20497;-79
2021/09/30 07:34:11;;;;;;;10.20;3.70;;;17.00;99.90;;;;;;4999635;28;20081;-79
2021/09/30 07:36:38;;;;;;;9.98;3.45;;;17.10;99.90;;;;;;4998176;28;20531;-81
2021/09/30 07:39:05;;;;;;;6.68;3.20;;;17.20;99.90;;;;;;4999086;28;20050;-79
2021/09/30 07:41:31;;;;;;;8.50;3.20;;;17.30;99.90;;;;;;4999301;28;20056;-78
2021/09/30 07:44:00;;;;;;;6.93;3.40;;;17.50;99.90;;;;;;4999292;28;20464;-79
2021/09/30 07:46:27;;;;;;;12.13;3.63;;;17.70;99.90;;;;;;4997858;28;20138;-79
2021/09/30 07:48:53;;;;;;;9.95;3.78;;;17.90;99.90;;;;;;4997429;28;20160;-76
2021/09/30 07:51:20;;;;;;;6.82;3.38;;;17.90;99.90;;;;;;4996525;28;20058;-78
2021/09/30 07:53:47;;;;;;;6.75;2.78;;;18.00;99.90;;;;;;4996389;28;20097;-80
2021/09/30 07:56:14;;;;;;;6.35;3.53;;;17.80;99.90;;;;;;4995527;28;20495;-77
2021/09/30 07:58:41;;;;;;;10.82;3.42;;;17.80;99.90;;;;;;4996307;28;20524;-78
2021/09/30 08:01:09;;;;;;;9.07;3.90;;;17.60;99.90;;;;;;4995496;28;20081;-77
2021/09/30 08:03:36;;;;;;;8.73;3.90;;;17.50;99.90;;;;;;4995064;28;20082;-78
2021/09/30 08:06:03;;;;;;;10.10;3.67;;;17.40;99.90;;;;;;4995521;28;20093;-77
2021/09/30 08:08:30;;;;;;;9.45;3.42;;;17.30;99.90;;;;;;4998330;28;20106;-78
2021/09/30 08:10:57;;;;;;;9.70;4.18;;;17.40;99.90;;;;;;4996470;28;20068;-78
2021/09/30 08:13:23;;;;;;;10.23;3.40;;;17.40;99.90;;;;;;4996173;28;20141;-78
2021/09/30 08:15:50;;;;;;;9.52;3.17;;;17.50;99.90;;;;;;4996263;28;20077;-78
2021/09/30 08:18:18;;;;;;;6.85;3.38;;;17.60;99.90;;;;;;4995757;28;20483;-78
2021/09/30 08:20:45;;;;;;;7.45;2.90;;;17.70;99.90;;;;;;4996102;28;20054;-78
2021/09/30 08:23:14;;;;;;;9.82;3.53;;;17.60;99.90;;;;;;4995505;28;20501;-78
2021/09/30 08:25:42;;;;;;;12.10;3.60;;;17.30;99.90;;;;;;4995248;28;20404;-78
2021/09/30 08:28:10;;;;;;;9.90;3.42;;;17.10;99.90;;;;;;4995682;28;20133;-78
2021/09/30 08:30:40;;;;;;;8.32;3.03;;;16.90;99.90;;;;;;4995762;28;20196;-78
2021/09/30 08:33:07;;;;;;;7.07;3.33;;;16.70;99.90;;;;;;4995023;28;20050;-78
2021/09/30 08:35:35;;;;;;;12.82;3.50;;;16.20;99.90;;;;;;5000062;28;20064;-79
2021/09/30 08:38:03;;;;;;;17.30;4.70;;;15.90;99.90;;;;;;5002019;28;20137;-79
2021/09/30 08:40:29;;;;;;;8.18;2.90;;;15.90;99.90;;;;;;5003019;28;20060;-79
2021/09/30 08:42:57;;;;;;;11.88;3.67;;;16.10;99.90;;;;;;5001940;28;20050;-79
2021/09/30 08:45:25;;;;;;;7.13;3.40;;;16.20;99.90;;;;;;5001979;28;20137;-80
2021/09/30 08:47:57;;;;;;;9.15;3.10;;;16.40;99.90;;;;;;5003671;28;20081;-82
2021/09/30 08:50:24;;;;;;;10.18;2.95;;;16.60;99.90;;;;;;5006789;28;20089;-80
2021/09/30 08:52:52;;;;;;;31.40;5.30;;;16.70;99.90;;;;;;5003010;28;20046;-79
2021/09/30 08:55:19;;;;;;;10.18;3.15;;;16.80;99.90;;;;;;5001850;28;20043;-80
2021/09/30 08:57:48;;;;;;;7.18;3.30;;;17.00;99.90;;;;;;5003337;28;20122;-81
2021/09/30 09:00:18;;;;;;;9.38;3.28;;;16.80;99.90;;;;;;5003345;28;20081;-80
2021/09/30 09:02:47;;;;;;;10.07;3.80;;;16.70;99.90;;;;;;5003609;28;20038;-79
2021/09/30 09:05:14;;;;;;;8.70;3.70;;;16.80;99.90;;;;;;5004596;28;20133;-80
2021/09/30 09:07:54;;;;;;;13.00;3.40;;;16.70;99.90;;;;;;5003532;28;20058;-79
2021/09/30 09:10:22;;;;;;;9.30;3.25;;;16.50;99.90;;;;;;5000597;28;20512;-81
2021/09/30 09:13:02;;;;;;;8.63;3.50;;;16.30;99.90;;;;;;5006470;28;20060;-81
2021/09/30 09:15:36;;;;;;;11.27;3.47;;;16.10;99.90;;;;;;4998087;28;20133;-80
2021/09/30 09:18:15;;;;;;;10.35;3.80;;;16.00;99.90;;;;;;4997797;28;20463;-81
2021/09/30 09:20:45;;;;;;;7.88;3.22;;;16.00;99.90;;;;;;4997635;28;20125;-80
2021/09/30 09:23:13;;;;;;;11.15;3.30;;;15.90;99.90;;;;;;4997743;28;20485;-80
2021/09/30 09:25:40;;;;;;;10.57;5.32;;;15.90;99.90;;;;;;4997632;28;20463;-82
2021/09/30 09:28:07;;;;;;;21.05;5.93;;;15.80;99.90;;;;;;4998108;28;20447;-80
2021/09/30 09:30:41;;;;;;;11.15;4.82;;;15.80;99.90;;;;;;5001254;28;20113;-84
2021/09/30 09:33:14;;;;;;;9.18;3.65;;;15.90;99.90;;;;;;5005633;28;20137;-81
2021/09/30 09:36:01;;;;;;;7.10;3.45;;;16.00;99.90;;;;;;5008119;28;20057;-80
2021/09/30 09:38:33;;;;;;;8.25;3.20;;;16.00;99.90;;;;;;5005183;28;20056;-80
2021/09/30 09:41:04;;;;;;;8.48;3.08;;;15.90;99.90;;;;;;5000581;28;20106;-80
2021/09/30 09:43:37;;;;;;;8.57;3.00;;;15.90;99.90;;;;;;5000268;28;21994;-81
2021/09/30 09:46:06;;;;;;;8.85;3.33;;;15.90;99.90;;;;;;5000028;28;20192;-80
2021/09/30 09:48:33;;;;;;;17.27;4.97;;;15.90;99.90;;;;;;5000677;28;20089;-80
2021/09/30 09:51:01;;;;;;;8.43;3.35;;;15.90;99.90;;;;;;5001028;28;20057;-82
2021/09/30 09:53:32;;;;;;;11.65;3.05;;;16.00;99.90;;;;;;5000230;28;20137;-80
2021/09/30 09:56:13;;;;;;;11.75;3.97;;;16.10;99.90;;;;;;4998339;28;20054;-79
2021/09/30 09:58:44;;;;;;;16.50;3.90;;;16.10;99.90;;;;;;4996243;28;20081;-79
2021/09/30 10:01:11;;;;;;;9.60;3.50;;;16.20;99.90;;;;;;4996124;28;20133;-79
2021/09/30 10:03:39;;;;;;;9.95;4.40;;;16.10;99.90;;;;;;4995491;28;20163;-80
2021/09/30 10:06:07;;;;;;;8.48;3.20;;;16.10;99.90;;;;;;4995062;28;20051;-79
2021/09/30 10:08:35;;;;;;;8.27;3.25;;;16.10;99.90;;;;;;4995891;28;20050;-79
2021/09/30 10:11:02;;;;;;;8.30;3.28;;;16.20;99.90;;;;;;4995683;28;20165;-78
2021/09/30 10:13:32;;;;;;;8.23;3.35;;;16.30;99.90;;;;;;4995626;28;20244;-79
2021/09/30 10:15:59;;;;;;;6.53;2.85;;;16.50;99.90;;;;;;4996018;28;20084;-82
2021/09/30 10:18:28;;;;;;;10.82;3.42;;;16.60;99.90;;;;;;4996057;28;20099;-79
2021/09/30 10:20:56;;;;;;;6.55;2.95;;;16.40;99.90;;;;;;4995036;28;20061;-77
2021/09/30 10:23:28;;;;;;;9.90;2.85;;;16.30;99.90;;;;;;4993930;28;20488;-78
2021/09/30 10:26:00;;;;;;;6.80;2.88;;;16.30;99.90;;;;;;4992581;28;20141;-77
2021/09/30 10:28:27;;;;;;;8.60;2.85;;;16.30;99.90;;;;;;4992836;28;20137;-77
2021/09/30 10:30:55;;;;;;;9.30;3.30;;;16.40;99.90;;;;;;4993031;28;20137;-78
2021/09/30 10:33:40;;;;;;;9.95;3.35;;;16.50;99.90;;;;;;4993044;28;20082;-78
2021/09/30 10:36:45;;;;;;;5.32;2.47;;;16.60;99.90;;;;;;4993729;28;20054;-77
2021/09/30 10:39:17;;;;;;;7.90;2.53;;;16.40;99.90;;;;;;4993807;28;20062;-79
2021/09/30 10:46:20;;;;;;;10.95;2.80;;;16.30;99.90;;;;;;4973557;28;20545;-79
2021/09/30 10:56:09;;;;;;;10.63;2.38;;;16.70;99.90;;;;;;4945127;28;20058;-78
2021/09/30 10:59:37;;;;;;;;;;;;;;;;;;;;;
2021/09/30 11:05:46;;;;;;;8.20;2.72;;;17.00;99.90;;;;;;5005177;28;20046;-78
2021/09/30 11:08:24;;;;;;;;;;;17.00;99.90;;;;;;5016306;28;20060;-77
2021/09/30 11:11:32;;;;;;;8.70;2.28;;;16.80;99.90;;;;;;5017920;28;19921;-79
2021/09/30 11:14:28;;;;;;;7.72;2.70;;;16.70;99.90;;;;;;4998166;28;20053;-79
2021/09/30 11:17:46;;;;;;;5.93;2.42;;;16.70;99.90;;;;;;4984680;23;20074;-77
2021/09/30 11:23:58;;;;;;;8.43;3.22;;;16.60;99.90;;;;;;5013075;28;20061;-77
2021/09/30 11:27:01;;;;;;;5.05;2.38;;;16.60;99.90;;;;;;5012795;28;20068;-77
2021/09/30 11:30:22;;;;;;;8.68;2.90;;;16.70;99.90;;;;;;5014487;28;20060;-77
2021/09/30 11:36:33;;;;;;;7.93;2.53;;;16.50;99.90;;;;;;5007244;28;20437;-77
2021/09/30 11:39:51;;;;;;;9.50;2.95;;;16.50;99.90;;;;;;4986002;28;20058;-78
2021/09/30 11:50:06;;;;;;;9.93;2.83;;;16.90;99.90;;;;;;4985341;28;20053;-77
2021/09/30 11:56:13;;;;;;;5.68;2.10;;;17.00;99.90;;;;;;4996681;28;20050;-76
2021/09/30 11:59:16;;;;;;;6.03;2.33;;;17.10;99.90;;;;;;5002112;28;20132;-77
2021/09/30 12:02:20;;;;;;;;;;;;;;;;;;;;;
2021/09/30 12:05:52;;;;;;;8.25;3.13;;;17.10;99.90;;;;;;4927822;28;20050;-77
2021/09/30 12:08:38;;;;;;;6.95;2.75;;;17.10;99.90;;;;;;4979688;28;20061;-78
2021/09/30 12:11:35;;;;;;;8.70;2.70;;;17.20;99.90;;;;;;4994665;28;20117;-78
2021/09/30 12:14:29;;;;;;;11.93;2.75;;;17.20;99.90;;;;;;5013578;28;20112;-78
2021/09/30 12:21:13;;;;;;;7.57;2.25;;;17.20;99.90;;;;;;4939227;29;20102;-76
2021/09/30 12:23:50;;;;;;;6.68;2.38;;;17.20;99.90;;;;;;4884062;29;20056;-76
2021/09/30 12:26:30;;;;;;;5.40;2.30;;;17.30;99.90;;;;;;4991045;28;20057;-77
2021/09/30 12:29:01;;;;;;;10.05;2.50;;;17.40;99.90;;;;;;4997541;28;20254;-77
2021/09/30 12:35:23;;;;;;;12.27;3.17;;;17.70;99.90;;;;;;4974878;28;20113;-77
2021/09/30 12:38:23;;;;;;;4.50;2.53;;;17.80;99.90;;;;;;5014176;28;20129;-78
2021/09/30 12:41:08;;;;;;;8.85;3.20;;;17.70;99.90;;;;;;5015962;28;20049;-77
2021/09/30 12:43:56;;;;;;;7.43;2.60;;;17.70;99.90;;;;;;5013567;28;20104;-77
2021/09/30 12:46:45;;;;;;;8.30;2.80;;;17.80;99.90;;;;;;5007494;28;20081;-78
2021/09/30 12:49:42;;;;;;;8.70;2.95;;;17.90;99.90;;;;;;5004190;28;20077;-77
2021/09/30 12:52:28;;;;;;;7.70;3.30;;;17.80;99.90;;;;;;5001083;28;20107;-76
2021/09/30 12:54:55;;;;;;;10.43;3.13;;;17.70;99.90;;;;;;5013698;28;20439;-76
2021/09/30 12:57:32;;;;;;;7.45;3.40;;;17.60;99.90;;;;;;4990214;28;20042;-77
2021/09/30 13:00:11;;;;;;;7.80;3.75;;;17.70;99.90;;;;;;4989239;28;20136;-77
2021/09/30 13:02:39;;;;;;;7.97;2.63;;;17.70;99.90;;;;;;4997050;28;20061;-76
2021/09/30 13:05:07;;;;;;;8.15;3.20;;;17.70;99.90;;;;;;4999550;28;20491;-77
2021/09/30 13:07:48;;;;;;;5.03;2.45;;;17.60;99.90;;;;;;4995112;28;20429;-77
2021/09/30 13:10:18;;;;;;;4.93;2.33;;;17.40;99.90;;;;;;4998340;28;20085;-77
2021/09/30 13:13:06;;;;;;;8.52;3.20;;;17.50;99.90;;;;;;4997140;28;20429;-76
2021/09/30 13:15:38;;;;;;;6.40;2.88;;;17.50;99.90;;;;;;4992697;28;20122;-76
2021/09/30 13:18:07;;;;;;;8.40;2.92;;;17.60;99.90;;;;;;4990439;28;20129;-76
2021/09/30 13:20:34;;;;;;;8.30;2.78;;;17.40;99.90;;;;;;4992151;28;20481;-76
2021/09/30 13:23:02;;;;;;;8.43;2.75;;;17.40;99.90;;;;;;4992619;28;20538;-77
2021/09/30 13:25:29;;;;;;;9.15;2.60;;;17.50;99.90;;;;;;4993245;28;20056;-77
2021/09/30 13:28:12;;;;;;;8.43;2.85;;;17.40;99.90;;;;;;4998604;28;20046;-77
2021/09/30 13:30:45;;;;;;;8.13;2.70;;;17.40;99.90;;;;;;5007844;28;20084;-76
2021/09/30 13:33:13;;;;;;;7.00;2.80;;;17.30;99.90;;;;;;5004537;28;20057;-76
2021/09/30 13:35:42;;;;;;;6.68;2.20;;;17.30;99.90;;;;;;5001622;28;20108;-75
2021/09/30 13:38:11;;;;;;;4.85;2.40;;;17.10;99.90;;;;;;4992982;28;20145;-75
2021/09/30 13:40:38;;;;;;;5.32;2.50;;;17.00;99.90;;;;;;4994359;28;20050;-77
2021/09/30 13:43:05;;;;;;;9.23;2.65;;;17.00;99.90;;;;;;4984914;28;20132;-76
2021/09/30 13:45:33;;;;;;;7.75;2.67;;;17.00;99.90;;;;;;4975752;28;20105;-76
2021/09/30 13:48:02;;;;;;;8.05;2.53;;;16.90;99.90;;;;;;4973061;28;20503;-76
2021/09/30 13:52:34;;;;;;;7.97;2.58;;;16.90;99.90;;;;;;4989340;27;3978266;-76
2021/09/30 13:55:04;;;;;;;9.00;2.88;;;16.90;99.90;;;;;;5109396;28;20048;-75
2021/09/30 13:57:58;;;;;;;9.05;2.42;;;16.90;99.90;;;;;;5095514;28;20048;-76
2021/09/30 14:00:45;;;;;;;;;;;;;;;;;;;;;
2021/09/30 14:03:13;;;;;;;7.28;2.75;;;17.00;99.90;;;;;;5088596;28;20062;-76
2021/09/30 14:05:50;;;;;;;6.82;2.20;;;17.10;99.90;;;;;;5100671;28;20157;-74
2021/09/30 14:08:34;;;;;;;6.85;2.88;;;17.10;99.90;;;;;;5108941;28;20048;-77
2021/09/30 14:11:21;;;;;;;;;;;;;;;;;;;;;
2021/09/30 14:14:09;;;;;;;6.00;2.28;;;17.30;99.90;;;;;;5088327;28;20056;-77
2021/09/30 14:19:30;;;;;;;6.85;2.45;;;17.30;99.90;;;;;;5083905;28;20063;-76
2021/09/30 14:27:56;;;;;;;9.20;2.60;;;17.30;99.90;;;;;;5047680;28;20528;-77
2021/09/30 14:30:48;;;;;;;9.32;2.53;;;17.20;99.90;;;;;;5080533;28;20090;-77
2021/09/30 14:33:36;;;;;;;10.50;2.55;;;17.20;99.90;;;;;;5062594;28;20493;-78
2021/09/30 14:36:11;;;;;;;5.78;2.30;;;17.20;99.90;;;;;;5067837;28;20048;-77
2021/09/30 14:38:51;;;;;;;6.68;2.35;;;17.10;99.90;;;;;;5068460;28;20091;-76
2021/09/30 14:41:31;;;;;;;4.00;1.73;;;17.20;99.90;;;;;;5067779;28;20041;-78
2021/09/30 14:44:02;;;;;;;6.57;2.25;;;17.30;99.90;;;;;;5068126;28;20087;-76
2021/09/30 15:10:53;;;;;;;6.75;2.78;;;17.20;99.90;;;;;;4945775;28;20594;-78
2021/09/30 15:35:10;;;;;;;5.20;2.25;;;17.00;99.90;;;;;;5016010;28;20041;-76
2021/09/30 15:40:58;;;;;;;6.68;2.58;;;16.80;99.90;;;;;;5016023;28;20100;-75
2021/09/30 15:43:25;;;;;;;9.75;2.63;;;16.80;99.90;;;;;;5023458;28;20045;-76
2021/09/30 15:45:56;;;;;;;4.57;2.58;;;16.80;99.90;;;;;;5058327;28;20055;-77
2021/09/30 15:48:29;;;;;;;6.07;2.13;;;16.80;99.90;;;;;;5066379;28;20067;-77
2021/09/30 15:50:59;;;;;;;6.80;2.53;;;16.80;99.90;;;;;;5091219;28;20041;-77
2021/09/30 15:53:26;;;;;;;6.78;2.90;;;16.80;99.90;;;;;;5080768;28;20063;-77
2021/09/30 15:56:06;;;;;;;5.13;2.53;;;16.80;99.90;;;;;;5081801;28;20079;-76
2021/09/30 16:01:28;;;;;;;6.35;2.80;;;16.80;99.90;;;;;;5087305;28;20454;-77
2021/09/30 16:04:01;;;;;;;5.95;2.40;;;16.70;99.90;;;;;;5080189;28;20136;-77
2021/09/30 16:06:43;;;;;;;8.55;3.28;;;16.70;99.90;;;;;;5096565;22;21162;-77
2021/09/30 16:09:14;;;;;;;5.75;2.35;;;16.60;99.90;;;;;;5082889;28;20060;-77
2021/09/30 16:14:48;;;;;;;5.88;2.85;;;16.60;99.90;;;;;;5071981;28;20056;-77
2021/09/30 16:17:15;;;;;;;5.70;2.47;;;16.50;99.90;;;;;;5072357;28;20064;-77
2021/09/30 16:19:43;;;;;;;6.95;2.88;;;16.50;99.90;;;;;;5082284;28;20079;-77
2021/09/30 16:22:10;;;;;;;6.28;2.70;;;16.40;99.90;;;;;;5091119;28;20052;-77
2021/09/30 16:24:37;;;;;;;6.07;2.85;;;16.40;99.90;;;;;;5093715;28;20044;-76
2021/09/30 16:27:42;;;;;;;5.32;2.75;;;16.40;99.90;;;;;;5094500;28;20428;-77
2021/09/30 16:33:39;;;;;;;;;;;;;;;;;;;;;
2021/09/30 16:36:19;;;;;;;7.22;3.10;;;16.10;99.90;;;;;;5112707;28;20067;-78
2021/09/30 16:39:14;;;;;;;5.10;2.45;;;16.10;99.90;;;;;;5116764;28;20055;-77
2021/09/30 16:41:42;;;;;;;5.75;2.83;;;16.10;99.90;;;;;;5066593;28;20108;-78
2021/09/30 16:44:54;;;;;;;5.93;3.05;;;16.10;99.90;;;;;;5109762;28;20051;-77
2021/09/30 16:47:52;;;;;;;4.15;2.63;;;16.10;99.90;;;;;;5069355;28;20060;-76
2021/09/30 16:50:49;;;;;;;10.30;3.38;;;16.10;99.90;;;;;;5013839;28;20049;-76
2021/09/30 16:53:25;;;;;;;5.68;2.95;;;16.10;99.90;;;;;;5011273;28;20046;-76
2021/09/30 16:56:17;;;;;;;7.13;3.10;;;16.10;99.90;;;;;;5010653;28;20045;-77
2021/09/30 17:01:58;;;;;;;6.43;3.20;;;16.00;99.90;;;;;;5058816;28;20544;-75
2021/09/30 17:04:35;;;;;;;7.88;3.50;;;15.90;99.90;;;;;;5092169;28;20488;-76
2021/09/30 17:07:04;;;;;;;9.75;3.55;;;15.90;99.90;;;;;;5092332;28;20051;-76
2021/09/30 17:09:31;;;;;;;7.43;2.95;;;15.90;99.90;;;;;;5092529;28;20082;-75
2021/09/30 17:12:04;;;;;;;7.05;3.30;;;15.80;99.90;;;;;;5092768;28;20189;-75
2021/09/30 17:14:34;;;;;;;8.63;3.08;;;15.70;99.90;;;;;;5091897;28;20044;-77
2021/09/30 17:17:02;;;;;;;9.70;4.10;;;15.60;99.90;;;;;;5093563;22;20567;-78
2021/09/30 17:19:32;;;;;;;7.80;3.35;;;15.60;99.90;;;;;;5067975;28;20083;-76
2021/09/30 17:22:02;;;;;;;6.85;3.00;;;15.50;99.90;;;;;;5061120;28;20094;-78
2021/09/30 17:24:30;;;;;;;7.20;2.90;;;15.50;99.90;;;;;;5061149;28;20053;-76
2021/09/30 17:26:58;;;;;;;7.88;2.70;;;15.40;99.90;;;;;;5068084;28;20075;-78
2021/09/30 17:29:26;;;;;;;6.53;3.05;;;15.40;99.90;;;;;;5082766;28;20126;-78
2021/09/30 17:31:53;;;;;;;7.25;3.13;;;15.30;99.90;;;;;;5081834;28;20067;-79
2021/09/30 17:34:22;;;;;;;5.57;2.80;;;15.20;99.90;;;;;;5081036;28;20072;-79
2021/09/30 17:36:49;;;;;;;8.45;3.25;;;15.20;99.90;;;;;;5089041;28;20062;-79
2021/09/30 17:39:16;;;;;;;7.32;3.08;;;15.20;99.90;;;;;;5085590;28;20068;-78
2021/09/30 17:41:44;;;;;;;4.85;2.65;;;15.20;99.90;;;;;;5086587;28;20602;-78
2021/09/30 17:44:11;;;;;;;8.27;2.70;;;15.10;99.90;;;;;;5085931;28;20060;-79
2021/09/30 17:46:38;;;;;;;7.00;2.58;;;15.10;99.90;;;;;;5083436;28;20523;-77
2021/09/30 17:49:05;;;;;;;8.15;3.42;;;15.00;99.90;;;;;;5077493;28;20055;-79
2021/09/30 17:51:34;;;;;;;5.82;2.60;;;15.00;99.90;;;;;;5081182;28;20484;-78
2021/09/30 17:54:01;;;;;;;5.18;2.50;;;14.90;99.90;;;;;;5082711;28;20489;-77
2021/09/30 17:56:28;;;;;;;6.00;2.83;;;14.90;99.90;;;;;;5088407;28;20345;-79
2021/09/30 17:58:55;;;;;;;4.55;2.65;;;14.80;99.90;;;;;;5077279;28;20052;-80
2021/09/30 18:01:22;;;;;;;5.45;2.75;;;14.90;99.90;;;;;;5094080;28;20093;-82